Bei Facebook empfehlenBei Twitter postenGoogle plusPinterest

Das Wetter im Erzgebirge am 23.05.2016

Wetter und Klima am 23.05.2016 Holzhau im Erzgebirge (630m ü.NN)
Letzte gemessene Temperatur und Uhrzeit der Messung23:45:00 Uhr11.10 °C
Temperatur (Maximum / Höchstwert) und Uhrzeit der Messung15:30:00 Uhr20.10 °C
Temperatur (Minimum / Tiefstwert) und Uhrzeit der Messung04:30:0010.40 °C
Errechneter Absolutwert der Temperaturschwankungen zwischen Tmin und Tmax des Tages9.70 K
Errechnete Tagesmitteltemperatur14.75313 °C
Gesamt - Niederschlag des Tages (in flüssiger Form)11.91 Liter / m²
Luftdruck (Maximum / Höchstwert) und Zeitpunkt der Messung01:30:00 Uhr1007.40 hPa
Luftdruck (Minimum / Tiefstwert) und Zeitpunkt der Messung18:15:00 Uhr1004.90 hPa
Errechneter Absolutwert der Luftdruckschwankungen des Tages2.50 hPa
Höchste gemessene Windgeschwindigkeit und Uhrzeit der Messung23:45:00 Uhr0.00 km/h
Errechnete Windhäufigkeit in Relation zu den Messwerten des Tages0.00000 %
Niedrigste Windkühle (Windchill) und Zeitpunkt der Messung04:30:00 Uhr10.40 °C
Taupunkt (Maximum / Höchstwert) und Uhrzeit der Messung15:15:00 Uhr15.90 °C
Taupunkt (Minimum / Tiefstwert) und Uhrzeit der Messung04:15:007.30 °C
Anzahl der automatisch eingelesenen Messwerte 96

Detaillierte Wetter- und Klima- Messwerte für den 23.05.2016 in Holzhau im Erzgebirge (630m ü.NN)
ZeitTemperaturLuftdruckRel. LuftfeuchteWindWindrichtungWindchillTaupunktNiederschlag l/m²
23:45:0011.10 °C1006.30 hPa93.00 %10.00 °C11.91
23:30:0011.20 °C1005.60 hPa93.00 %10.10 °C11.91
23:15:0011.30 °C1005.80 hPa92.00 %10.00 °C11.91
23:00:0011.40 °C1005.90 hPa92.00 %10.10 °C11.91
22:45:0011.60 °C1005.80 hPa92.00 %10.30 °C11.91
22:30:0011.80 °C1005.70 hPa92.00 %10.50 °C11.91
22:15:0011.90 °C1005.70 hPa92.00 %10.60 °C11.91
22:00:0011.90 °C1005.80 hPa92.00 %10.60 °C11.91
21:45:0011.60 °C1005.90 hPa91.00 %10.20 °C11.91
21:30:0011.50 °C1005.80 hPa91.00 %10.10 °C11.91
21:15:0011.50 °C1005.90 hPa91.00 %10.10 °C11.91
21:00:0011.50 °C1006.30 hPa90.00 %9.90 °C11.91
20:45:0011.40 °C1006.80 hPa90.00 %9.80 °C10.88
20:30:0011.50 °C1005.40 hPa90.00 %9.90 °C10.88
20:15:0011.60 °C1006.00 hPa89.00 %9.90 °C9.84
20:00:0011.80 °C1006.20 hPa89.00 %10.00 °C8.81
19:45:0012.10 °C1006.40 hPa88.00 %10.20 °C7.77
19:30:0012.50 °C1006.30 hPa88.00 %10.60 °C7.25
19:15:0012.90 °C1005.30 hPa87.00 %10.80 °C4.66
19:00:0013.80 °C1005.10 hPa86.00 %11.50 °C2.59
18:45:0014.90 °C1005.40 hPa84.00 %12.20 °C0.52
18:30:0015.50 °C1005.20 hPa83.00 %12.60 °C 
18:15:0015.80 °C1004.90 hPa82.00 %12.70 °C 
18:00:0015.90 °C1005.00 hPa81.00 %12.60 °C 
17:45:0016.10 °C1005.10 hPa80.00 %12.70 °C 
17:30:0016.40 °C1005.30 hPa79.00 %12.80 °C 
17:15:0016.90 °C1005.80 hPa77.00 %12.80 °C 
17:00:0017.40 °C1005.30 hPa77.00 %13.30 °C 
16:45:0017.80 °C1005.90 hPa75.00 %13.30 °C 
16:30:0018.30 °C1005.70 hPa74.00 %13.60 °C 
16:15:0018.90 °C1005.70 hPa74.00 %14.20 °C 
16:00:0018.90 °C1005.40 hPa74.00 %14.20 °C 
15:45:0018.90 °C1005.90 hPa73.00 %14.00 °C 
15:30:0020.10 °C1005.90 hPa73.00 %15.10 °C 
15:15:0019.80 °C1005.90 hPa78.00 %15.90 °C 
15:00:0017.90 °C1006.00 hPa81.00 %14.60 °C 
14:45:0016.40 °C1006.20 hPa80.00 %12.90 °C 
14:30:0016.40 °C1006.20 hPa79.00 %12.80 °C 
14:15:0016.70 °C1006.50 hPa79.00 %13.00 °C 
14:00:0016.50 °C1006.50 hPa78.00 %12.70 °C 
13:45:0016.60 °C1006.50 hPa77.00 %12.60 °C 
13:30:0016.90 °C1006.30 hPa77.00 %12.80 °C 
13:15:0016.90 °C1006.50 hPa75.00 %12.40 °C 
13:00:0018.10 °C1006.50 hPa73.00 %13.20 °C 
12:45:0018.60 °C1006.40 hPa74.00 %13.90 °C 
12:30:0018.70 °C1006.30 hPa75.00 %14.20 °C 
12:15:0017.60 °C1006.30 hPa78.00 %13.70 °C 
12:00:0017.30 °C1006.50 hPa79.00 %13.60 °C 
11:45:0016.60 °C1006.60 hPa80.00 %13.10 °C 
11:30:0016.20 °C1006.20 hPa81.00 %12.90 °C 
11:15:0016.10 °C1006.30 hPa81.00 %12.80 °C 
11:00:0015.70 °C1006.30 hPa82.00 %12.60 °C 
10:45:0015.50 °C1006.20 hPa82.00 %12.40 °C 
10:30:0015.30 °C1006.40 hPa82.00 %12.20 °C 
10:15:0014.90 °C1006.30 hPa82.00 %11.90 °C 
10:00:0014.90 °C1006.30 hPa81.00 %11.70 °C 
09:45:0014.90 °C1006.30 hPa80.00 %11.50 °C 
09:30:0015.10 °C1006.20 hPa79.00 %11.50 °C 
09:15:0016.00 °C1006.20 hPa77.00 %12.00 °C 
09:00:0016.30 °C1006.10 hPa77.00 %12.30 °C 
08:45:0017.60 °C1006.10 hPa73.00 %12.70 °C 
08:30:0018.50 °C1006.10 hPa74.00 %13.80 °C 
08:15:0017.90 °C1006.10 hPa76.00 %13.60 °C 
08:00:0016.30 °C1006.10 hPa77.00 %12.30 °C 
07:45:0017.60 °C1006.10 hPa73.00 %12.70 °C 
07:30:0018.50 °C1006.10 hPa74.00 %13.80 °C 
07:15:0017.90 °C1006.10 hPa76.00 %13.60 °C 
07:00:0017.00 °C1006.00 hPa77.00 %12.90 °C 
06:45:0015.60 °C1006.00 hPa81.00 %12.40 °C 
06:30:0014.30 °C1006.10 hPa83.00 %11.50 °C 
06:15:0013.10 °C1006.20 hPa83.00 %10.30 °C 
06:00:0012.10 °C1006.30 hPa83.00 %9.30 °C 
05:45:0011.80 °C1006.40 hPa83.00 %9.00 °C 
05:30:0011.50 °C1006.50 hPa83.00 %8.70 °C 
05:15:0011.40 °C1006.40 hPa83.00 %8.60 °C 
05:00:0011.10 °C1006.40 hPa83.00 %8.30 °C 
04:45:0010.80 °C1006.40 hPa83.00 %8.00 °C 
04:30:0010.40 °C1006.20 hPa82.00 %7.50 °C 
04:15:0010.40 °C1006.30 hPa81.00 %7.30 °C 
04:00:0010.60 °C1006.70 hPa81.00 %7.50 °C 
03:45:0010.80 °C1006.60 hPa79.00 %7.30 °C 
03:30:0010.90 °C1006.30 hPa79.00 %7.40 °C 
03:15:0011.20 °C1006.20 hPa78.00 %7.50 °C 
03:00:0011.60 °C1006.50 hPa77.00 %7.70 °C 
02:45:0012.10 °C1006.90 hPa76.00 %8.00 °C 
02:30:0012.60 °C1006.90 hPa75.00 %8.30 °C 
02:15:0013.10 °C1007.10 hPa73.00 %8.40 °C 
02:00:0014.00 °C1007.20 hPa71.00 %8.80 °C 
01:45:0014.40 °C1007.10 hPa71.00 %9.20 °C 
01:30:0015.20 °C1007.40 hPa70.00 %9.80 °C 
01:15:0015.60 °C1006.80 hPa69.00 %9.90 °C 
01:00:0015.90 °C1005.90 hPa69.00 %10.20 °C 
00:45:0016.10 °C1005.80 hPa69.00 %10.40 °C 
00:30:0016.10 °C1005.70 hPa68.00 %10.20 °C 
00:15:0016.30 °C1005.80 hPa68.00 %10.40 °C 
00:00:0016.40 °C1005.80 hPa67.00 %10.30 °C 

Permanenter Link zu dieser Seite: Wetter im Erzgebirge am 23.05.2016
Performance-Info: Die Erstellung der Seite / Statistik(en) / Tabelle(n) erforderte 5 Datenbankserver-Abfrage(n) und dauerte 114 Millisekunden. (Dieser Messwert ist von der Gesamt-Auslastung des Servers abhängig.)
Erzgebirge - Wetter | Erzgebirge - Wetter (Mobilgeräte) | Komplette Klimadatenbank